createdAt,value
2018-01-11T00:00:23.773Z,6.20
2018-01-11T00:02:51.236Z,5.40
2018-01-11T00:05:18.732Z,5.53
2018-01-11T00:07:46.193Z,5.30
2018-01-11T00:10:13.666Z,6.63
2018-01-11T00:12:41.907Z,5.50
2018-01-11T00:15:09.390Z,6.47
2018-01-11T00:17:36.847Z,7.00
2018-01-11T00:20:04.357Z,6.17
2018-01-11T00:22:31.830Z,6.00
2018-01-11T00:24:59.285Z,5.53
2018-01-11T00:27:26.764Z,5.83
2018-01-11T00:29:54.230Z,5.77
2018-01-11T00:32:21.685Z,5.30
2018-01-11T00:34:49.167Z,6.33
2018-01-11T00:37:16.618Z,6.03
2018-01-11T00:39:44.090Z,6.47
2018-01-11T00:42:11.596Z,6.43
2018-01-11T00:44:39.174Z,6.30
2018-01-11T00:47:06.662Z,7.40
2018-01-11T00:49:34.137Z,6.20
2018-01-11T00:52:01.602Z,6.00
2018-01-11T00:54:29.081Z,6.17
2018-01-11T00:56:56.873Z,6.77
2018-01-11T00:59:24.357Z,6.20
2018-01-11T01:01:51.890Z,6.40
2018-01-11T01:04:19.370Z,5.97
2018-01-11T01:06:47.624Z,6.13
2018-01-11T01:09:15.089Z,7.43
2018-01-11T01:11:43.358Z,6.90
2018-01-11T01:14:10.847Z,7.10
2018-01-11T01:16:38.302Z,8.37
2018-01-11T01:19:05.818Z,7.17
2018-01-11T01:21:33.290Z,6.50
2018-01-11T01:24:00.750Z,6.60
2018-01-11T01:26:28.219Z,7.03
2018-01-11T01:28:55.685Z,8.10
2018-01-11T01:31:23.145Z,6.47
2018-01-11T01:33:50.636Z,7.47
2018-01-11T01:36:18.100Z,6.60
2018-01-11T01:38:45.559Z,6.47
2018-01-11T01:41:13.085Z,5.63
2018-01-11T01:43:40.542Z,5.27
2018-01-11T01:46:07.984Z,5.50
2018-01-11T01:48:43.332Z,5.77
2018-01-11T01:51:10.780Z,5.90
2018-01-11T01:53:38.245Z,6.30
2018-01-11T01:56:05.724Z,6.47
2018-01-11T01:58:33.195Z,5.50
2018-01-11T02:01:00.687Z,6.67
2018-01-11T02:03:28.150Z,5.40
2018-01-11T02:05:56.387Z,5.03
2018-01-11T02:08:23.874Z,5.80
2018-01-11T02:10:51.350Z,5.20
2018-01-11T02:13:19.588Z,5.40
2018-01-11T02:15:47.147Z,5.20
2018-01-11T02:18:14.652Z,5.67
2018-01-11T02:20:42.169Z,4.77
2018-01-11T02:23:09.651Z,5.63
2018-01-11T02:25:37.968Z,6.30
2018-01-11T02:28:06.153Z,6.20
2018-01-11T02:30:33.616Z,6.63
2018-01-11T02:33:01.109Z,6.33
2018-01-11T02:35:28.570Z,7.07
2018-01-11T02:37:56.773Z,6.40
2018-01-11T02:40:24.259Z,6.57
2018-01-11T02:42:51.726Z,5.80
2018-01-11T02:45:19.182Z,5.73
2018-01-11T02:47:46.666Z,5.60
2018-01-11T02:50:14.130Z,5.80
2018-01-11T02:52:41.584Z,5.90
2018-01-11T02:55:09.057Z,6.00
2018-01-11T02:57:36.518Z,6.27
2018-01-11T03:00:03.988Z,6.30
2018-01-11T03:02:31.451Z,6.77
2018-01-11T03:04:58.967Z,6.50
2018-01-11T03:07:26.458Z,6.60
2018-01-11T03:09:53.979Z,6.60
2018-01-11T03:12:22.546Z,6.30
2018-01-11T03:14:50.010Z,5.90
2018-01-11T03:17:17.593Z,6.77
2018-01-11T03:19:45.063Z,6.20
2018-01-11T03:22:13.301Z,6.83
2018-01-11T03:24:40.774Z,6.30
2018-01-11T03:27:08.233Z,6.60
2018-01-11T03:29:36.456Z,6.93
2018-01-11T03:32:03.947Z,6.57
2018-01-11T03:34:31.410Z,7.70
2018-01-11T03:36:58.872Z,7.40
2018-01-11T03:39:26.355Z,7.73
2018-01-11T03:41:53.810Z,8.80
2018-01-11T03:44:21.274Z,8.97
2018-01-11T03:46:48.749Z,8.90
2018-01-11T03:49:16.211Z,10.03
2018-01-11T03:51:43.694Z,7.80
2018-01-11T03:54:11.194Z,7.60
2018-01-11T03:56:39.434Z,8.67
2018-01-11T03:59:07.183Z,9.40
2018-01-11T04:01:34.651Z,9.00
2018-01-11T04:04:02.998Z,7.20
2018-01-11T04:06:30.481Z,7.60
2018-01-11T04:08:57.945Z,7.03
2018-01-11T04:11:25.448Z,7.27
2018-01-11T04:13:53.332Z,7.80
2018-01-11T04:16:20.788Z,7.63
2018-01-11T04:18:48.264Z,7.27
2018-01-11T04:21:15.764Z,7.93
2018-01-11T04:23:44.018Z,7.90
2018-01-11T04:26:11.498Z,7.40
2018-01-11T04:28:38.971Z,8.00
2018-01-11T04:31:06.456Z,9.43
2018-01-11T04:33:33.954Z,9.10
2018-01-11T04:36:01.465Z,11.17
2018-01-11T04:38:28.927Z,10.13
2018-01-11T04:40:56.401Z,9.50
2018-01-11T04:43:23.893Z,10.27
2018-01-11T04:45:58.474Z,10.00
2018-01-11T04:48:25.968Z,11.10
2018-01-11T04:50:53.471Z,10.53
2018-01-11T04:53:20.980Z,10.00
2018-01-11T04:55:48.470Z,11.07
2018-01-11T04:58:15.935Z,10.10
2018-01-11T05:00:49.026Z,10.00
2018-01-11T05:03:16.522Z,10.40
2018-01-11T05:05:44.006Z,9.73
2018-01-11T05:08:11.496Z,10.00
2018-01-11T05:10:39.003Z,11.07
2018-01-11T05:13:06.497Z,10.13
2018-01-11T05:15:34.747Z,9.83
2018-01-11T05:18:02.223Z,10.00
2018-01-11T05:20:30.497Z,9.47
2018-01-11T05:22:58.733Z,9.40
2018-01-11T05:25:26.218Z,8.90
2018-01-11T05:27:53.716Z,9.17
2018-01-11T05:30:21.187Z,8.30
2018-01-11T05:32:48.665Z,8.77
2018-01-11T05:35:16.127Z,8.50
2018-01-11T05:37:44.015Z,8.63
2018-01-11T05:40:11.520Z,8.97
2018-01-11T05:42:38.994Z,7.13
2018-01-11T05:45:06.486Z,7.20
2018-01-11T05:47:33.988Z,7.10
2018-01-11T05:50:01.500Z,8.33
2018-01-11T05:52:28.989Z,8.20
2018-01-11T05:54:56.462Z,8.30
2018-01-11T05:57:23.956Z,8.90
2018-01-11T05:59:51.484Z,7.53
2018-01-11T06:02:18.958Z,9.13
2018-01-11T06:04:46.442Z,9.00
2018-01-11T06:07:13.915Z,9.23
2018-01-11T06:09:41.423Z,9.73
2018-01-11T06:12:08.900Z,9.80
2018-01-11T06:14:36.382Z,9.70
2018-01-11T06:17:04.663Z,10.73
2018-01-11T06:19:32.115Z,11.20
2018-01-11T06:22:00.371Z,9.50
2018-01-11T06:24:27.846Z,11.13
2018-01-11T06:26:55.332Z,10.80
2018-01-11T06:29:22.834Z,12.63
2018-01-11T06:31:53.492Z,11.03
2018-01-11T06:34:20.964Z,12.17
2018-01-11T06:36:48.445Z,11.97
2018-01-11T06:39:15.928Z,11.57
2018-01-11T06:41:43.404Z,11.80
2018-01-11T06:44:10.882Z,11.63
2018-01-11T06:46:39.151Z,12.10
2018-01-11T06:49:06.664Z,11.97
2018-01-11T06:51:34.210Z,13.03
2018-01-11T06:54:01.687Z,11.50
2018-01-11T06:56:29.236Z,10.90
2018-01-11T06:58:56.732Z,10.97
2018-01-11T07:01:30.841Z,10.90
2018-01-11T07:03:58.309Z,11.30
2018-01-11T07:06:26.567Z,12.60
2018-01-11T07:08:54.035Z,10.60
2018-01-11T07:11:21.527Z,12.43
2018-01-11T07:13:49.068Z,12.33
2018-01-11T07:16:16.725Z,10.10
2018-01-11T07:18:44.261Z,10.87
2018-01-11T07:21:11.752Z,11.90
2018-01-11T07:23:40.003Z,12.53
2018-01-11T07:26:07.471Z,11.03
2018-01-11T07:28:34.976Z,11.30
2018-01-11T07:31:02.465Z,11.53
2018-01-11T07:33:29.958Z,11.67
2018-01-11T07:35:58.226Z,11.90
2018-01-11T07:38:25.689Z,12.20
2018-01-11T07:40:53.180Z,11.07
2018-01-11T07:43:20.682Z,12.20
2018-01-11T07:45:48.162Z,11.63
2018-01-11T07:48:16.412Z,12.30
2018-01-11T07:50:43.901Z,12.97
2018-01-11T07:53:11.388Z,12.67
2018-01-11T07:55:38.908Z,11.40
2018-01-11T07:58:07.159Z,11.50
2018-01-11T08:00:34.640Z,11.60
2018-01-11T08:03:02.132Z,9.80
2018-01-11T08:05:35.801Z,10.43
2018-01-11T08:08:03.504Z,9.80
2018-01-11T08:10:31.013Z,10.50
2018-01-11T08:12:58.515Z,10.27
2018-01-11T08:15:26.011Z,11.20
2018-01-11T08:17:53.495Z,11.43
2018-01-11T08:20:21.739Z,11.67
2018-01-11T08:22:49.208Z,9.70
2018-01-11T08:25:16.690Z,11.37
2018-01-11T08:27:44.181Z,11.57
2018-01-11T08:30:11.674Z,10.83
2018-01-11T08:32:39.153Z,12.17
2018-01-11T08:35:06.645Z,11.37
2018-01-11T08:37:34.140Z,12.40
2018-01-11T08:40:01.615Z,12.67
2018-01-11T08:42:29.496Z,12.30
2018-01-11T08:44:57.727Z,12.70
2018-01-11T08:47:25.206Z,14.43
2018-01-11T08:49:52.688Z,13.67
2018-01-11T08:52:20.940Z,12.17
2018-01-11T08:54:48.462Z,12.23
2018-01-11T08:57:15.954Z,12.47
2018-01-11T08:59:43.422Z,11.93
2018-01-11T09:02:10.905Z,10.47
2018-01-11T09:04:38.370Z,11.03
2018-01-11T09:07:06.325Z,10.77
2018-01-11T09:09:33.776Z,9.47
2018-01-11T09:12:01.238Z,10.17
2018-01-11T09:14:28.747Z,10.67
2018-01-11T09:16:56.228Z,11.20
2018-01-11T09:19:23.727Z,10.20
2018-01-11T09:21:51.208Z,11.00
2018-01-11T09:24:18.697Z,8.70
2018-01-11T09:26:46.180Z,10.20
2018-01-11T09:29:14.410Z,10.33
2018-01-11T09:31:42.650Z,7.67
2018-01-11T09:34:10.128Z,9.97
2018-01-11T09:36:37.636Z,10.53
2018-01-11T09:39:05.127Z,10.97
2018-01-11T09:41:32.613Z,10.00
2018-01-11T09:44:00.111Z,10.17
2018-01-11T09:46:28.366Z,10.40
2018-01-11T09:48:55.837Z,10.63
2018-01-11T09:51:24.101Z,10.10
2018-01-11T09:53:51.567Z,10.13
2018-01-11T09:56:19.068Z,10.00
2018-01-11T09:58:47.312Z,10.43
2018-01-11T10:01:14.804Z,9.77
2018-01-11T10:03:42.370Z,11.00
2018-01-11T10:06:09.859Z,10.20
2018-01-11T10:08:37.321Z,9.27
2018-01-11T10:11:04.801Z,10.73
2018-01-11T10:13:33.028Z,10.67
2018-01-11T10:16:00.539Z,10.30
2018-01-11T10:18:27.994Z,10.70
2018-01-11T10:20:55.481Z,10.23
2018-01-11T10:23:23.020Z,11.20
2018-01-11T10:25:50.456Z,10.80
2018-01-11T10:28:18.720Z,10.83
2018-01-11T10:30:46.191Z,11.23
2018-01-11T10:33:14.729Z,11.23
2018-01-11T10:35:42.240Z,11.40
2018-01-11T10:38:10.493Z,12.20
2018-01-11T10:40:37.966Z,10.97
2018-01-11T10:43:06.230Z,11.10
2018-01-11T10:45:33.759Z,11.23
2018-01-11T10:48:01.240Z,12.40
2018-01-11T10:50:28.735Z,11.47
2018-01-11T10:52:56.250Z,11.37
2018-01-11T10:55:23.723Z,10.97
2018-01-11T10:57:51.204Z,13.47
2018-01-11T11:00:18.724Z,13.00
2018-01-11T11:02:49.153Z,12.40
2018-01-11T11:05:16.667Z,10.97
2018-01-11T11:07:44.165Z,12.30
2018-01-11T11:10:11.644Z,10.07
2018-01-11T11:12:39.881Z,11.13
2018-01-11T11:15:07.367Z,10.00
2018-01-11T11:17:34.844Z,12.10
2018-01-11T11:20:02.327Z,11.63
2018-01-11T11:22:29.849Z,10.70
2018-01-11T11:24:58.061Z,12.17
2018-01-11T11:27:25.584Z,11.60
2018-01-11T11:29:53.843Z,11.00
2018-01-11T11:32:21.308Z,9.93
2018-01-11T11:34:48.950Z,10.60
2018-01-11T11:37:17.203Z,9.40
2018-01-11T11:39:44.697Z,9.70
2018-01-11T11:42:12.180Z,10.27
2018-01-11T11:44:39.657Z,8.10
2018-01-11T11:47:07.225Z,8.80
2018-01-11T11:49:34.701Z,9.57
2018-01-11T11:52:02.203Z,12.23
2018-01-11T11:54:30.448Z,9.87
2018-01-11T11:56:57.932Z,9.30
2018-01-11T11:59:25.428Z,8.27
2018-01-11T12:01:52.902Z,8.27
2018-01-11T12:04:20.354Z,8.30
2018-01-11T12:06:47.843Z,7.70
2018-01-11T12:09:15.327Z,7.23
2018-01-11T12:11:43.588Z,7.07
2018-01-11T12:14:11.851Z,6.73
2018-01-11T12:16:39.314Z,6.90
2018-01-11T12:19:06.796Z,7.00
2018-01-11T12:21:35.039Z,7.47
2018-01-11T12:24:02.559Z,7.90
2018-01-11T12:26:30.087Z,6.90
2018-01-11T12:28:58.315Z,7.37
2018-01-11T12:31:25.841Z,7.90
2018-01-11T12:33:53.359Z,7.80
2018-01-11T12:36:20.844Z,7.30
2018-01-11T12:38:48.326Z,6.90
2018-01-11T12:41:15.804Z,9.10
2018-01-11T12:43:43.295Z,7.47
2018-01-11T12:46:11.582Z,7.87
2018-01-11T12:48:39.840Z,7.00
2018-01-11T12:51:07.296Z,7.03
2018-01-11T12:53:34.756Z,6.37
2018-01-11T12:56:03.022Z,6.87
2018-01-11T12:58:30.503Z,6.23
2018-01-11T13:00:58.754Z,7.23
2018-01-11T13:03:26.224Z,6.73
2018-01-11T13:05:53.702Z,6.03
2018-01-11T13:08:21.240Z,5.90
2018-01-11T13:10:48.646Z,6.33
2018-01-11T13:13:16.921Z,6.90
2018-01-11T13:15:44.428Z,5.80
2018-01-11T13:18:11.924Z,6.50
2018-01-11T13:20:39.407Z,5.13
2018-01-11T13:23:06.885Z,4.60
2018-01-11T13:25:34.371Z,4.90
2018-01-11T13:28:01.858Z,5.00
2018-01-11T13:30:29.337Z,7.87
2018-01-11T13:32:56.837Z,5.20
2018-01-11T13:35:25.057Z,5.27
2018-01-11T13:37:52.567Z,5.90
2018-01-11T13:40:20.798Z,4.53
2018-01-11T13:42:48.340Z,5.17
2018-01-11T13:45:15.819Z,5.07
2018-01-11T13:47:43.282Z,4.40
2018-01-11T13:50:10.776Z,5.80
2018-01-11T13:52:39.010Z,4.40
2018-01-11T13:55:06.467Z,4.40
2018-01-11T13:57:33.988Z,4.33
2018-01-11T14:00:01.478Z,4.10
2018-01-11T14:02:28.966Z,4.13
2018-01-11T14:04:56.598Z,4.60
2018-01-11T14:07:24.983Z,4.63
2018-01-11T14:09:52.460Z,4.60
2018-01-11T14:12:19.918Z,4.57
2018-01-11T14:14:47.389Z,4.20
2018-01-11T14:17:14.886Z,3.60
2018-01-11T14:19:42.337Z,3.33
2018-01-11T14:22:09.851Z,4.27
2018-01-11T14:24:37.343Z,4.60
2018-01-11T14:27:04.851Z,4.80
2018-01-11T14:29:32.335Z,4.33
2018-01-11T14:32:00.580Z,4.77
2018-01-11T14:34:28.072Z,4.80
2018-01-11T14:36:56.298Z,4.47
2018-01-11T14:39:24.531Z,10.10
2018-01-11T14:41:52.060Z,21.80
2018-01-11T14:44:20.431Z,16.70
2018-01-11T14:46:47.916Z,15.37
2018-01-11T14:49:15.406Z,10.77
2018-01-11T14:51:42.880Z,12.80
2018-01-11T14:54:10.384Z,14.10
2018-01-11T14:56:38.614Z,11.50
2018-01-11T14:59:06.099Z,5.67
2018-01-11T15:01:33.576Z,5.60
2018-01-11T15:04:01.087Z,5.50
2018-01-11T15:06:28.828Z,6.53
2018-01-11T15:08:56.317Z,6.50
2018-01-11T15:11:23.823Z,7.27
2018-01-11T15:13:51.285Z,6.97
2018-01-11T15:16:18.788Z,5.97
2018-01-11T15:18:46.255Z,6.20
2018-01-11T15:21:13.726Z,6.93
2018-01-11T15:23:41.231Z,9.90
2018-01-11T15:26:08.726Z,10.67
2018-01-11T15:28:36.217Z,10.67
2018-01-11T15:31:04.447Z,12.60
2018-01-11T15:33:31.968Z,13.13
2018-01-11T15:35:59.451Z,13.43
2018-01-11T15:38:26.958Z,14.97
2018-01-11T15:40:54.456Z,13.73
2018-01-11T15:43:21.911Z,13.10
2018-01-11T15:45:49.381Z,14.93
2018-01-11T15:48:16.890Z,15.43
2018-01-11T15:50:44.364Z,13.87
2018-01-11T15:53:11.859Z,15.20
2018-01-11T15:55:39.351Z,14.40
2018-01-11T15:58:06.824Z,15.27
2018-01-11T16:00:35.060Z,13.73
2018-01-11T16:03:02.559Z,14.60
2018-01-11T16:05:30.054Z,15.40
2018-01-11T16:07:57.548Z,13.40
2018-01-11T16:10:25.233Z,14.10
2018-01-11T16:12:53.472Z,14.80
2018-01-11T16:15:20.973Z,14.40
2018-01-11T16:17:49.246Z,15.27
2018-01-11T16:20:17.516Z,16.53
2018-01-11T16:22:44.988Z,18.03
2018-01-11T16:25:12.493Z,14.77
2018-01-11T16:27:39.956Z,16.10
2018-01-11T16:30:07.450Z,14.80
2018-01-11T16:32:35.733Z,17.20
2018-01-11T16:35:03.988Z,14.90
2018-01-11T16:37:31.447Z,27.80
2018-01-11T16:39:59.714Z,20.77
2018-01-11T16:42:27.220Z,21.07
2018-01-11T16:44:54.689Z,20.57
2018-01-11T16:47:22.192Z,32.30
2018-01-11T16:49:49.774Z,49.83
2018-01-11T16:52:18.036Z,28.00
2018-01-11T16:54:45.575Z,19.20
2018-01-11T16:57:13.831Z,46.90
2018-01-11T16:59:41.339Z,27.33
2018-01-11T17:02:09.564Z,16.87
2018-01-11T17:04:37.049Z,19.40
2018-01-11T17:07:04.549Z,10.80
2018-01-11T17:09:32.925Z,9.80
2018-01-11T17:12:00.400Z,9.33
2018-01-11T17:14:27.882Z,8.03
2018-01-11T17:16:55.371Z,9.60
2018-01-11T17:19:23.638Z,11.37
2018-01-11T17:21:51.887Z,11.23
2018-01-11T17:24:19.452Z,11.70
2018-01-11T17:26:46.943Z,13.13
2018-01-11T17:29:14.448Z,11.93
2018-01-11T17:31:41.977Z,11.77
2018-01-11T17:34:09.477Z,11.90
2018-01-11T17:36:37.401Z,12.43
2018-01-11T17:39:04.877Z,16.70
2018-01-11T17:41:32.351Z,14.17
2018-01-11T17:43:59.835Z,13.63
2018-01-11T17:46:27.364Z,15.47
2018-01-11T17:48:54.876Z,17.77
2018-01-11T17:51:23.788Z,12.13
2018-01-11T17:53:51.272Z,13.30
2018-01-11T17:56:18.843Z,15.70
2018-01-11T17:58:46.353Z,16.30
2018-01-11T18:01:13.864Z,18.60
2018-01-11T18:03:41.391Z,15.20
2018-01-11T18:06:08.917Z,16.00
2018-01-11T18:08:36.423Z,16.23
2018-01-11T18:11:03.967Z,16.60
2018-01-11T18:13:31.568Z,15.90
2018-01-11T18:15:59.861Z,15.10
2018-01-11T18:18:28.104Z,17.30
2018-01-11T18:20:56.332Z,16.40
2018-01-11T18:23:23.809Z,16.00
2018-01-11T18:25:51.639Z,16.10
2018-01-11T18:28:19.906Z,20.37
2018-01-11T18:30:48.144Z,18.80
2018-01-11T18:33:15.682Z,17.97
2018-01-11T18:35:43.172Z,20.60
2018-01-11T18:38:10.667Z,19.37
2018-01-11T18:40:38.911Z,15.50
2018-01-11T18:43:06.387Z,16.70
2018-01-11T18:45:33.901Z,18.40
2018-01-11T18:48:01.375Z,20.47
2018-01-11T18:50:28.872Z,22.50
2018-01-11T18:52:57.151Z,20.83
2018-01-11T18:55:24.639Z,17.87
2018-01-11T18:57:52.134Z,16.97
2018-01-11T19:00:20.095Z,12.40
2018-01-11T19:02:47.684Z,10.43
2018-01-11T19:05:16.211Z,15.67
2018-01-11T19:07:44.401Z,15.37
2018-01-11T19:10:11.908Z,13.80
2018-01-11T19:12:39.464Z,11.70
2018-01-11T19:15:11.945Z,9.20
2018-01-11T19:17:39.409Z,9.83
2018-01-11T19:20:06.897Z,27.03
2018-01-11T19:22:34.397Z,17.57
2018-01-11T19:25:02.647Z,14.07
2018-01-11T19:27:30.149Z,11.87
2018-01-11T19:29:57.650Z,17.50
2018-01-11T19:32:25.138Z,15.17
2018-01-11T19:34:52.622Z,9.43
2018-01-11T19:37:20.888Z,15.33
2018-01-11T19:39:49.181Z,15.50
2018-01-11T19:42:16.680Z,14.90
2018-01-11T19:44:44.184Z,10.80
2018-01-11T19:47:11.691Z,8.87
2018-01-11T19:49:39.164Z,8.53
2018-01-11T19:52:06.682Z,7.43
2018-01-11T19:54:34.156Z,8.10
2018-01-11T19:57:01.624Z,8.20
2018-01-11T19:59:29.904Z,8.43
2018-01-11T20:01:57.383Z,8.50
2018-01-11T20:04:24.842Z,8.70
2018-01-11T20:06:52.353Z,8.77
2018-01-11T20:09:19.905Z,9.00
2018-01-11T20:11:47.837Z,10.40
2018-01-11T20:14:15.327Z,13.87
2018-01-11T20:16:42.800Z,13.27
2018-01-11T20:19:10.304Z,29.43
2018-01-11T20:21:37.802Z,13.50
2018-01-11T20:24:05.290Z,12.70
2018-01-11T20:26:32.776Z,11.20
2018-01-11T20:29:00.248Z,11.03
2018-01-11T20:31:27.746Z,10.43
2018-01-11T20:33:55.215Z,12.07
2018-01-11T20:36:22.731Z,12.43
2018-01-11T20:38:50.222Z,12.97
2018-01-11T20:41:17.719Z,15.30
2018-01-11T20:43:45.191Z,12.47
2018-01-11T20:46:12.692Z,13.80
2018-01-11T20:48:40.191Z,12.53
2018-01-11T20:51:07.719Z,13.67
2018-01-11T20:53:35.212Z,10.77
2018-01-11T20:56:03.395Z,11.43
2018-01-11T20:58:31.631Z,11.57
2018-01-11T21:00:59.120Z,9.17
2018-01-11T21:03:27.405Z,9.77
2018-01-11T21:05:55.645Z,9.40
2018-01-11T21:08:23.141Z,8.07
2018-01-11T21:10:51.396Z,8.57
2018-01-11T21:13:18.885Z,7.30
2018-01-11T21:15:46.401Z,9.10
2018-01-11T21:18:13.880Z,9.13
2018-01-11T21:20:41.364Z,8.20
2018-01-11T21:23:08.834Z,8.30
2018-01-11T21:25:36.317Z,8.87
2018-01-11T21:28:03.780Z,9.00
2018-01-11T21:30:31.250Z,8.60
2018-01-11T21:32:59.024Z,8.80
2018-01-11T21:35:26.503Z,8.87
2018-01-11T21:37:54.751Z,8.83
2018-01-11T21:40:22.240Z,8.67
2018-01-11T21:42:49.916Z,8.70
2018-01-11T21:45:17.410Z,8.90
2018-01-11T21:47:44.935Z,9.07
2018-01-11T21:50:12.413Z,8.87
2018-01-11T21:52:39.899Z,10.33
2018-01-11T21:55:07.413Z,10.00
2018-01-11T21:57:35.336Z,10.73
2018-01-11T22:00:02.865Z,10.30
2018-01-11T22:02:30.343Z,10.07
2018-01-11T22:04:57.859Z,9.93
2018-01-11T22:07:25.338Z,10.67
2018-01-11T22:09:52.858Z,11.17
2018-01-11T22:12:20.349Z,9.93
2018-01-11T22:14:47.847Z,9.27
2018-01-11T22:17:16.115Z,9.67
2018-01-11T22:19:44.434Z,11.13
2018-01-11T22:22:11.933Z,10.10
2018-01-11T22:24:39.409Z,9.13
2018-01-11T22:27:07.650Z,10.63
2018-01-11T22:29:35.143Z,8.93
2018-01-11T22:32:02.600Z,8.77
2018-01-11T22:34:30.338Z,10.07
2018-01-11T22:36:57.807Z,10.03
2018-01-11T22:39:25.311Z,11.17
2018-01-11T22:41:52.880Z,10.47
2018-01-11T22:44:20.317Z,11.43
2018-01-11T22:46:47.796Z,10.50
2018-01-11T22:49:15.302Z,10.10
2018-01-11T22:51:42.798Z,10.90
2018-01-11T22:54:11.044Z,10.77
2018-01-11T22:56:38.525Z,11.10
2018-01-11T22:59:06.010Z,10.30
2018-01-11T23:01:33.517Z,10.23
2018-01-11T23:04:00.993Z,12.37
2018-01-11T23:06:28.467Z,10.93
2018-01-11T23:08:55.952Z,11.10
2018-01-11T23:11:30.201Z,10.60
2018-01-11T23:13:58.471Z,12.73
2018-01-11T23:16:25.942Z,11.90
2018-01-11T23:18:54.221Z,11.30
2018-01-11T23:21:22.463Z,13.80
2018-01-11T23:23:49.944Z,12.40
2018-01-11T23:26:18.188Z,12.57
2018-01-11T23:28:45.660Z,11.93
2018-01-11T23:31:13.156Z,12.33
2018-01-11T23:33:40.615Z,11.90
2018-01-11T23:36:08.151Z,12.13
2018-01-11T23:38:36.397Z,12.30
2018-01-11T23:41:04.623Z,11.23
2018-01-11T23:43:32.141Z,13.10
2018-01-11T23:45:59.598Z,10.00
2018-01-11T23:48:27.422Z,12.20
2018-01-11T23:50:54.890Z,11.70
2018-01-11T23:53:22.357Z,10.60
2018-01-11T23:55:49.845Z,10.30
2018-01-11T23:58:17.303Z,10.67
